K6P9

Ranger Airport

Ranger, Texas, USA
METAR K6P9 092115Z AUTO 34009KT 10SM BKN032 08/00 A3032 RMK AO2 T00760001
Observed Flight Rules
Dec-9 @ 21:15 UTC (24 minutes ago) Visual Flight Rules
Wind Visibility Clouds
340° at 9 knots 10 miles
  • Broken at 3,200' AGL
Temperatures Readings
Current 8°C / 46°F
Dewpoint 0°C / 32°F
Humidity 57%
Altimeter 30.32" Hg
Pressure 1027 hPa
Elevation 449
METAR K6P9 092115Z AUTO 34009KT 10SM BKN032 08/00 A3032 RMK AO2 T00760001
Observed Flight Rules
Dec-9 @ 21:15 UTC
(24 minutes ago)
VFR
Wind Visibility
340° at 9 knots 10 miles
Clouds
  • Broken at 3,200' AGL
Temperature Dewpoint
8°C / 46°F 0°C / 32°F
Humidity Altimeter Pressure
57% 30.32" Hg 1027 hPa